Time;durP1;ratioP1;P1;durP2;ratioP2;P2;SDS_P1;SDS_P2;PMS_P1;PMS_P2;Temp;Humidity;BMP_temperature;BMP_pressure;BME280_temperature;BME280_humidity;BME280_pressure;Samples;Min_cycle;Max_cycle;Signal;HPM_P1;HPM_P2
2022/06/17 00:00:54;;;;;;;3.43;2.50;;;;;;;20.63;51.20;99971.22;4974002;28;20435;-75
2022/06/17 00:03:22;;;;;;;5.00;3.17;;;;;;;20.68;50.95;99976.28;4985111;28;20434;-75
2022/06/17 00:05:50;;;;;;;4.50;3.10;;;;;;;20.59;51.69;99984.31;4995630;28;20494;-75
2022/06/17 00:08:19;;;;;;;4.60;2.80;;;;;;;20.29;52.79;99981.69;4996255;28;20831;-75
2022/06/17 00:10:47;;;;;;;5.13;2.93;;;;;;;20.48;52.05;99981.69;4995673;28;20423;-74
2022/06/17 00:13:18;;;;;;;5.03;3.20;;;;;;;20.39;52.35;99979.81;4986781;28;21006;-76
2022/06/17 00:15:45;;;;;;;3.03;2.40;;;;;;;20.47;52.29;99981.88;4976531;28;20429;-75
2022/06/17 00:18:13;;;;;;;3.00;2.43;;;;;;;20.33;53.00;99980.41;4976304;28;20910;-76
2022/06/17 00:20:40;;;;;;;4.70;2.77;;;;;;;20.01;54.52;99989.69;4976502;28;20447;-76
2022/06/17 00:23:10;;;;;;;4.60;2.83;;;;;;;19.86;55.35;99983.78;4982543;28;20438;-75
2022/06/17 00:25:37;;;;;;;7.10;3.07;;;;;;;19.82;55.22;99978.72;4995820;28;20565;-75
2022/06/17 00:28:09;;;;;;;3.33;2.73;;;;;;;19.97;54.61;99982.81;4995277;28;20509;-76
2022/06/17 00:30:36;;;;;;;3.67;3.00;;;;;;;19.90;55.20;99989.81;4979955;28;20428;-75
2022/06/17 00:33:04;;;;;;;3.00;2.50;;;;;;;19.94;55.00;99985.78;4976306;28;20450;-75
2022/06/17 00:35:35;;;;;;;3.83;2.50;;;;;;;20.05;54.74;99982.94;4989722;28;20529;-75
2022/06/17 00:38:03;;;;;;;4.67;2.87;;;;;;;20.12;53.89;99977.78;4995022;28;20521;-74
2022/06/17 00:40:33;;;;;;;4.00;2.60;;;;;;;20.20;54.41;99973.34;4995097;28;20514;-75
2022/06/17 00:43:04;;;;;;;4.40;2.90;;;;;;;20.13;54.29;99969.44;4994968;28;20514;-75
2022/06/17 00:45:37;;;;;;;6.07;2.63;;;;;;;20.04;54.90;99974.91;4992290;28;20960;-74
2022/06/17 00:48:08;;;;;;;5.67;2.70;;;;;;;20.04;54.70;99969.44;4995062;28;20442;-75
2022/06/17 00:50:39;;;;;;;3.33;2.47;;;;;;;20.11;54.77;99966.00;4994819;28;20430;-75
2022/06/17 00:53:18;;;;;;;5.93;3.70;;;;;;;20.25;54.07;99974.78;4985989;28;20476;-75
2022/06/17 00:55:50;;;;;;;6.57;3.30;;;;;;;20.25;53.20;99972.06;4975600;28;20471;-76
2022/06/17 00:58:20;;;;;;;3.63;3.00;;;;;;;20.09;54.97;99981.66;4975720;28;20514;-76
2022/06/17 01:00:49;;;;;;;4.20;3.17;;;;;;;19.91;55.95;99981.47;4975805;28;20432;-76
2022/06/17 01:03:21;;;;;;;5.13;3.50;;;;;;;19.85;56.38;99987.50;4984111;28;20529;-74
2022/06/17 01:05:51;;;;;;;5.80;3.07;;;;;;;19.80;55.76;99992.50;4994470;28;20500;-74
2022/06/17 01:11:07;;;;;;;2.93;2.30;;;;;;;19.87;54.81;99990.09;4991741;28;20443;-74
2022/06/17 01:13:34;;;;;;;5.50;2.90;;;;;;;19.78;55.51;99986.31;4994406;28;20443;-75
2022/06/17 01:16:03;;;;;;;3.30;2.87;;;;;;;19.77;55.15;99990.94;4994849;28;20878;-75
2022/06/17 01:18:32;;;;;;;2.27;2.07;;;;;;;19.69;55.23;99979.81;4993846;28;21130;-75
2022/06/17 01:21:02;;;;;;;3.23;2.30;;;;;;;19.74;55.39;99979.41;4975386;28;20546;-75
2022/06/17 01:23:31;;;;;;;3.20;2.53;;;;;;;19.70;55.76;99983.44;4975987;28;20486;-75
2022/06/17 01:25:57;;;;;;;7.10;2.80;;;;;;;19.69;56.23;99998.94;4994207;28;20487;-74
2022/06/17 01:28:24;;;;;;;5.40;2.87;;;;;;;19.58;57.14;100004.47;4986759;28;20440;-75
2022/06/17 01:30:54;;;;;;;3.47;3.00;;;;;;;19.61;57.99;100008.81;4975091;28;20903;-74
2022/06/17 01:33:24;;;;;;;5.03;2.90;;;;;;;19.43;59.17;100003.13;4975031;28;20444;-74
2022/06/17 01:35:53;;;;;;;4.33;2.77;;;;;;;19.34;60.27;100002.94;4974800;28;20519;-76
2022/06/17 01:38:21;;;;;;;3.03;2.73;;;;;;;19.20;60.85;100002.41;4976305;28;21035;-74
2022/06/17 01:40:49;;;;;;;7.50;3.30;;;;;;;19.19;61.07;100017.06;4974905;28;20878;-75
2022/06/17 01:43:20;;;;;;;5.70;3.07;;;;;;;19.08;61.12;100018.00;4974855;28;20450;-74
2022/06/17 01:45:50;;;;;;;8.20;3.00;;;;;;;19.05;61.30;100021.88;4974731;28;20821;-74
2022/06/17 01:48:20;;;;;;;2.90;2.60;;;;;;;19.00;61.48;100023.28;4977332;28;20489;-75
2022/06/17 01:50:51;;;;;;;3.53;2.40;;;;;;;19.10;61.13;100026.91;4974823;28;20443;-74
2022/06/17 01:53:23;;;;;;;2.87;2.57;;;;;;;19.24;59.81;100018.38;4974433;28;20522;-76
2022/06/17 01:55:55;;;;;;;4.07;3.13;;;;;;;19.20;59.64;100030.59;4975756;28;20922;-75
2022/06/17 01:58:28;;;;;;;4.67;2.90;;;;;;;19.25;59.72;100027.47;4974479;28;20536;-76
2022/06/17 02:00:56;;;;;;;3.53;2.67;;;;;;;19.17;59.70;100030.84;4974399;28;20521;-75
2022/06/17 02:03:26;;;;;;;5.63;3.30;;;;;;;19.18;59.91;100032.59;4974146;28;20432;-75
2022/06/17 02:05:57;;;;;;;4.20;3.00;;;;;;;19.16;60.16;100018.22;4976559;28;20498;-75
2022/06/17 02:08:24;;;;;;;4.40;3.13;;;;;;;19.14;60.59;100026.50;4992924;28;20769;-76
2022/06/17 02:10:52;;;;;;;6.10;3.37;;;;;;;19.11;60.69;100031.41;4974055;28;20240;-75
2022/06/17 02:13:18;;;;;;;6.13;3.53;;;;;;;19.00;61.38;100023.28;4974396;28;20447;-75
2022/06/17 02:15:46;;;;;;;4.18;2.97;;;;;;;18.98;61.67;100022.53;4993166;28;20183;-76
2022/06/17 02:18:17;;;;;;;5.50;3.55;;;;;;;18.88;62.25;100028.78;4993373;28;20278;-75
2022/06/17 02:20:47;;;;;;;6.25;3.08;;;;;;;18.78;63.40;100025.09;4993189;28;20277;-75
2022/06/17 02:23:14;;;;;;;4.30;3.25;;;;;;;18.82;63.97;100026.59;4992912;28;20274;-75
2022/06/17 02:25:44;;;;;;;4.45;2.92;;;;;;;18.79;63.18;100021.41;4991421;28;20289;-75
2022/06/17 02:28:13;;;;;;;2.88;2.58;;;;;;;18.72;63.70;100014.69;4991949;28;20710;-75
2022/06/17 02:30:43;;;;;;;4.60;3.17;;;;;;;18.65;64.31;100017.06;4993008;28;20286;-76
2022/06/17 02:33:12;;;;;;;4.13;2.40;;;;;;;18.46;65.19;100017.78;4992188;28;20664;-74
2022/06/17 02:35:44;;;;;;;3.80;2.73;;;;;;;18.51;65.32;100017.38;4993353;28;20667;-75
2022/06/17 02:38:14;;;;;;;4.35;3.13;;;;;;;18.45;65.63;100013.34;4990900;28;20470;-75
2022/06/17 02:40:44;;;;;;;6.60;3.55;;;;;;;18.42;65.95;100013.56;4993174;28;20270;-74
2022/06/17 02:43:16;;;;;;;3.70;2.42;;;;;;;18.37;65.76;100024.00;4993041;28;20278;-75
2022/06/17 02:45:46;;;;;;;2.47;2.03;;;;;;;18.55;65.10;100033.34;4993157;28;20608;-74
2022/06/17 02:48:22;;;;;;;4.80;3.25;;;;;;;18.52;65.04;100033.63;4990104;28;20290;-75
2022/06/17 02:50:51;;;;;;;4.25;2.60;;;;;;;18.43;65.47;100036.25;4993039;28;20531;-74
2022/06/17 02:53:29;;;;;;;4.43;2.95;;;;;;;18.15;67.26;100022.19;4993124;28;20190;-75
2022/06/17 02:55:58;;;;;;;3.97;3.13;;;;;;;18.02;68.17;100027.81;4985404;28;20553;-74
2022/06/17 02:58:37;;;;;;;3.83;2.92;;;;;;;17.97;67.71;100021.84;4974004;28;20198;-75
2022/06/17 03:01:08;;;;;;;4.22;2.80;;;;;;;18.05;67.84;100013.94;4992722;28;20197;-75
2022/06/17 03:03:35;;;;;;;5.55;3.45;;;;;;;17.88;67.73;100019.91;4990552;28;20298;-76
2022/06/17 03:06:03;;;;;;;4.25;2.88;;;;;;;17.82;68.57;100015.84;4972942;28;20238;-74
2022/06/17 03:08:32;;;;;;;4.18;3.38;;;;;;;17.80;68.92;100025.09;4975925;28;20289;-75
2022/06/17 03:11:01;;;;;;;6.00;4.30;;;;;;;17.77;68.94;100014.44;4992840;28;20248;-74
2022/06/17 03:13:36;;;;;;;10.68;3.55;;;;;;;17.74;68.91;100021.00;4991677;28;20249;-75
2022/06/17 03:16:05;;;;;;;4.95;3.53;;;;;;;17.94;68.18;100024.84;4973284;28;20190;-76
2022/06/17 03:18:32;;;;;;;5.80;3.70;;;;;;;18.09;67.62;100030.88;4972973;28;20249;-75
2022/06/17 03:21:00;;;;;;;5.28;3.38;;;;;;;18.22;67.15;100025.28;4973185;28;20191;-75
2022/06/17 03:23:31;;;;;;;3.63;2.90;;;;;;;18.37;66.37;100032.19;4973110;28;20207;-75
2022/06/17 03:26:02;;;;;;;4.85;3.00;;;;;;;18.10;68.30;100019.84;4973554;28;20222;-75
2022/06/17 03:28:35;;;;;;;3.75;3.00;;;;;;;17.98;69.04;100029.06;4973351;28;20662;-75
2022/06/17 03:31:07;;;;;;;4.28;3.08;;;;;;;17.74;71.01;100031.03;4972752;28;20235;-75
2022/06/17 03:33:38;;;;;;;5.28;3.80;;;;;;;17.76;70.99;100021.72;4972820;28;20278;-75
2022/06/17 03:36:12;;;;;;;3.60;3.05;;;;;;;17.84;70.44;100026.56;4993999;28;20539;-76
2022/06/17 03:38:43;;;;;;;5.40;3.10;;;;;;;17.68;71.35;100018.75;4996471;28;20613;-76
2022/06/17 03:41:16;;;;;;;6.82;3.35;;;;;;;17.68;71.26;100035.09;4996119;28;20191;-75
2022/06/17 03:43:49;;;;;;;5.90;3.00;;;;;;;17.90;69.84;100026.09;4994143;28;20194;-75
2022/06/17 03:46:20;;;;;;;4.63;3.35;;;;;;;18.19;67.58;100039.19;4996354;28;20236;-74
2022/06/17 03:48:51;;;;;;;4.70;3.50;;;;;;;18.14;68.19;100039.56;4993134;28;20289;-75
2022/06/17 03:51:21;;;;;;;9.85;5.13;;;;;;;18.06;68.79;100042.91;4995928;28;20200;-75
2022/06/17 03:53:49;;;;;;;5.63;3.58;;;;;;;18.00;69.05;100035.25;4991370;28;20221;-76
2022/06/17 03:56:20;;;;;;;6.30;3.88;;;;;;;17.87;70.03;100046.28;4976360;28;20194;-74
2022/06/17 03:58:49;;;;;;;5.05;3.50;;;;;;;17.84;69.68;100045.66;4976855;28;20210;-74
2022/06/17 04:01:20;;;;;;;3.88;3.13;;;;;;;17.92;69.53;100049.47;4976714;28;20262;-76
2022/06/17 04:03:52;;;;;;;4.55;3.05;;;;;;;18.02;68.86;100046.91;4976348;28;20278;-75
2022/06/17 04:06:21;;;;;;;4.85;3.20;;;;;;;18.07;68.86;100050.09;4975210;28;20233;-74
2022/06/17 04:08:56;;;;;;;3.50;3.15;;;;;;;18.08;69.05;100051.81;4975348;28;20201;-75
2022/06/17 04:11:27;;;;;;;5.25;3.53;;;;;;;18.17;68.36;100054.78;4975406;28;20198;-75
2022/06/17 04:13:59;;;;;;;6.28;3.13;;;;;;;18.20;68.79;100049.06;4976280;28;20282;-75
2022/06/17 04:16:34;;;;;;;3.72;2.72;;;;;;;18.39;67.78;100052.00;4974790;28;20185;-74
2022/06/17 04:19:13;;;;;;;322.33;297.23;;;;;;;18.53;67.41;100048.97;4975228;28;20622;-75
2022/06/17 04:21:40;;;;;;;204.68;193.43;;;;;;;18.39;68.08;100052.00;4964562;28;20279;-74
2022/06/17 04:24:13;;;;;;;5.10;3.67;;;;;;;18.47;68.17;100049.47;4994392;28;20262;-74
2022/06/17 04:26:42;;;;;;;9.85;4.55;;;;;;;18.46;67.90;100064.13;4986084;28;20677;-74
2022/06/17 04:29:15;;;;;;;8.35;7.70;;;;;;;18.69;66.94;100047.69;4975079;28;20682;-74
2022/06/17 04:31:43;;;;;;;14.93;13.93;;;;;;;18.83;66.27;100050.13;4975102;28;20195;-74
2022/06/17 04:34:13;;;;;;;309.55;291.35;;;;;;;18.76;66.17;100051.63;4975140;28;20188;-75
2022/06/17 04:36:44;;;;;;;320.85;303.08;;;;;;;18.87;65.23;100051.59;4974540;28;20198;-74
2022/06/17 04:39:21;;;;;;;7.90;4.80;;;;;;;19.05;64.30;100059.22;4985585;28;20226;-75
2022/06/17 04:41:51;;;;;;;4.80;3.30;;;;;;;18.95;64.60;100060.00;4993807;28;20430;-75
2022/06/17 04:44:19;;;;;;;3.70;2.70;;;;;;;18.85;64.81;100050.88;4994394;28;20977;-74
2022/06/17 04:46:50;;;;;;;4.85;3.00;;;;;;;19.02;64.58;100067.69;4993888;28;20222;-74
2022/06/17 04:49:19;;;;;;;3.60;2.40;;;;;;;18.98;64.90;100064.34;4993754;28;20198;-73
2022/06/17 04:51:46;;;;;;;4.93;3.10;;;;;;;19.01;64.61;100066.78;4982300;28;20539;-75
2022/06/17 04:54:13;;;;;;;3.00;2.80;;;;;;;19.14;64.13;100077.53;4974722;28;20423;-75
2022/06/17 04:56:43;;;;;;;5.97;3.30;;;;;;;19.32;63.43;100080.53;4974462;28;20430;-75
2022/06/17 04:59:19;;;;;;;3.43;2.93;;;;;;;19.40;62.86;100088.03;4975362;28;20542;-75
2022/06/17 05:01:49;;;;;;;3.90;3.50;;;;;;;19.56;61.41;100080.25;4984733;28;20518;-74
2022/06/17 05:04:16;;;;;;;4.87;3.30;;;;;;;19.37;62.37;100081.84;4974726;28;20431;-75
2022/06/17 05:07:15;;;;;;;5.63;3.75;;;;;;;19.39;62.52;100078.97;5086832;28;20569;-74
2022/06/17 05:09:46;;;;;;;4.73;2.83;;;;;;;19.29;62.50;100089.00;5069305;28;20612;-76
2022/06/17 05:12:21;;;;;;;3.93;3.33;;;;;;;19.32;62.39;100089.56;5068819;28;20447;-76
2022/06/17 05:14:52;;;;;;;4.05;3.35;;;;;;;19.17;63.83;100088.16;5068615;28;20516;-75
2022/06/17 05:17:20;;;;;;;7.87;3.77;;;;;;;19.43;62.31;100082.31;5068293;28;20188;-74
2022/06/17 05:19:48;;;;;;;5.93;3.40;;;;;;;19.29;62.72;100089.84;5068432;28;20836;-76
2022/06/17 05:22:22;;;;;;;4.50;3.30;;;;;;;19.37;61.95;100079.09;5068456;28;20431;-75
2022/06/17 05:24:49;;;;;;;4.37;3.50;;;;;;;19.83;60.48;100076.06;5068342;28;20526;-76
2022/06/17 05:27:15;;;;;;;5.40;3.23;;;;;;;20.25;58.62;100070.47;5068038;28;20815;-75
2022/06/17 05:29:42;;;;;;;7.50;3.43;;;;;;;20.86;56.35;100069.44;5067896;28;20462;-75
2022/06/17 05:32:12;;;;;;;7.67;3.90;;;;;;;21.31;55.89;100069.69;5067538;28;20434;-75
2022/06/17 05:34:38;;;;;;;3.53;3.00;;;;;;;21.88;52.56;100066.09;5067643;28;20470;-75
2022/06/17 05:37:05;;;;;;;6.10;3.13;;;;;;;22.30;50.92;100060.16;5068040;28;20514;-74
2022/06/17 05:39:33;;;;;;;3.97;3.57;;;;;;;22.23;50.57;100057.16;5067597;28;20437;-76
2022/06/17 05:41:59;;;;;;;4.20;2.80;;;;;;;22.08;50.96;100048.53;5057239;28;20804;-74
2022/06/17 05:44:26;;;;;;;129.63;123.80;;;;;;;22.12;51.08;100047.22;5063673;28;20493;-75
2022/06/17 05:46:53;;;;;;;214.47;205.00;;;;;;;21.68;52.19;100055.19;5049535;28;20486;-75
2022/06/17 05:49:19;;;;;;;8.63;3.60;;;;;;;22.00;51.53;100056.66;5064991;28;20486;-75
2022/06/17 05:51:46;;;;;;;3.20;2.57;;;;;;;21.32;53.71;100060.44;5049415;28;20524;-75
2022/06/17 05:54:13;;;;;;;6.53;3.10;;;;;;;21.10;54.52;100056.19;5055395;28;20469;-75
2022/06/17 05:56:41;;;;;;;5.53;3.83;;;;;;;21.17;54.97;100061.94;5061507;28;20917;-76
2022/06/17 05:59:07;;;;;;;4.30;3.50;;;;;;;21.42;54.26;100058.59;5061837;28;20522;-75
2022/06/17 06:01:34;;;;;;;4.93;3.10;;;;;;;21.65;53.65;100058.25;5060648;28;20443;-75
2022/06/17 06:04:01;;;;;;;5.10;2.83;;;;;;;21.84;52.61;100068.25;5055310;28;20527;-75
2022/06/17 06:06:27;;;;;;;38.07;36.10;;;;;;;21.68;53.23;100063.41;5047175;28;20594;-75
2022/06/17 06:08:54;;;;;;;85.70;81.93;;;;;;;21.34;54.08;100069.38;5066173;28;20429;-75
2022/06/17 06:11:21;;;;;;;21.10;19.93;;;;;;;21.21;54.38;100069.72;5067156;28;20534;-75
2022/06/17 06:13:49;;;;;;;6.73;4.07;;;;;;;20.88;56.25;100068.28;5067263;28;20437;-75
2022/06/17 06:16:16;;;;;;;6.30;5.70;;;;;;;20.72;56.86;100077.06;5066819;28;20522;-76
2022/06/17 06:18:58;;;;;;;7.70;7.00;;;;;;;20.49;57.99;100084.66;5055368;28;20530;-77
2022/06/17 06:21:24;;;;;;;3.77;3.40;;;;;;;20.51;57.49;100081.75;5034204;28;20872;-82
2022/06/17 06:23:51;;;;;;;4.97;4.17;;;;;;;20.65;58.33;100077.78;5033645;28;20524;-82
2022/06/17 06:26:20;;;;;;;4.10;3.03;;;;;;;21.03;56.03;100075.06;5033889;28;20887;-81
2022/06/17 06:28:48;;;;;;;3.90;2.80;;;;;;;21.24;55.06;100068.56;5033906;28;20827;-82
2022/06/17 06:31:26;;;;;;;6.70;3.80;;;;;;;21.28;55.01;100075.47;5038543;28;20514;-81
2022/06/17 06:33:52;;;;;;;7.90;5.20;;;;;;;21.61;53.76;100081.47;5038056;28;20522;-80
2022/06/17 06:36:21;;;;;;;3.83;3.40;;;;;;;21.67;53.73;100086.38;5053351;28;20447;-82
2022/06/17 06:38:48;;;;;;;6.80;6.13;;;;;;;21.55;53.87;100091.16;5048893;28;20950;-82
2022/06/17 06:41:17;;;;;;;12.50;11.53;;;;;;;21.25;55.16;100089.44;5034079;28;20441;-83
2022/06/17 06:43:44;;;;;;;5.73;3.30;;;;;;;21.62;54.32;100096.91;5033921;28;20420;-81
2022/06/17 06:46:15;;;;;;;4.13;2.27;;;;;;;21.89;53.41;100096.13;5033779;28;21061;-83
2022/06/17 06:48:42;;;;;;;7.10;5.60;;;;;;;21.98;52.63;100097.06;5033663;28;20518;-82
2022/06/17 06:51:09;;;;;;;4.23;2.50;;;;;;;22.39;51.43;100097.66;5045711;28;20969;-82
2022/06/17 06:53:36;;;;;;;3.70;2.57;;;;;;;21.99;52.26;100093.31;5033101;28;20487;-82
2022/06/17 06:56:05;;;;;;;4.33;2.67;;;;;;;22.07;52.25;100087.97;5040459;28;20523;-81
2022/06/17 06:58:32;;;;;;;6.33;3.60;;;;;;;22.21;51.62;100087.47;5053826;28;20494;-82
2022/06/17 07:00:59;;;;;;;6.90;2.83;;;;;;;22.68;50.01;100087.34;5039189;28;20448;-82
2022/06/17 07:03:30;;;;;;;2.90;2.70;;;;;;;22.69;49.89;100085.44;5033858;28;20506;-82
2022/06/17 07:05:59;;;;;;;3.60;2.53;;;;;;;22.86;49.43;100084.59;5041672;28;20541;-82
2022/06/17 07:08:28;;;;;;;9.90;4.73;;;;;;;23.01;48.09;100078.59;5034218;28;21102;-82
2022/06/17 07:10:59;;;;;;;9.13;8.20;;;;;;;23.28;47.91;100081.22;5032949;28;20436;-81
2022/06/17 07:13:26;;;;;;;20.93;19.47;;;;;;;23.64;45.85;100083.03;5042305;28;20530;-82
2022/06/17 07:15:53;;;;;;;48.77;46.47;;;;;;;23.69;46.36;100072.41;5053030;28;20823;-82
2022/06/17 07:18:22;;;;;;;4.00;3.63;;;;;;;23.64;46.35;100083.03;5050076;28;20444;-82
2022/06/17 07:20:52;;;;;;;5.27;3.10;;;;;;;23.73;47.06;100076.53;5043071;28;20449;-83
2022/06/17 07:23:21;;;;;;;7.30;3.87;;;;;;;23.65;46.15;100079.22;5042095;28;20440;-82
2022/06/17 07:25:48;;;;;;;27.90;25.90;;;;;;;24.16;45.55;100083.00;5035475;28;20958;-82
2022/06/17 07:28:16;;;;;;;6.43;3.53;;;;;;;24.48;45.01;100079.53;5034284;28;20467;-82
2022/06/17 07:30:45;;;;;;;6.30;3.90;;;;;;;24.76;44.09;100068.22;5032455;28;20511;-82
2022/06/17 07:33:12;;;;;;;6.70;4.50;;;;;;;25.38;42.87;100073.28;5036742;28;20519;-83
2022/06/17 07:35:40;;;;;;;4.10;2.77;;;;;;;25.52;42.42;100068.97;5050272;28;20439;-82
2022/06/17 07:40:56;;;;;;;6.20;3.80;;;;;;;25.22;42.72;100090.69;5032426;28;20452;-83
2022/06/17 07:43:23;;;;;;;8.63;3.60;;;;;;;25.32;41.95;100090.50;5032538;28;20480;-81
2022/06/17 07:45:50;;;;;;;16.53;5.73;;;;;;;25.36;42.28;100084.47;5051770;28;20442;-82
2022/06/17 07:48:18;;;;;;;6.80;3.50;;;;;;;25.74;41.87;100073.75;5051799;28;20601;-81
2022/06/17 07:50:45;;;;;;;7.23;3.57;;;;;;;25.11;42.82;100074.47;5050312;28;20440;-82
2022/06/17 07:53:14;;;;;;;5.13;3.03;;;;;;;25.56;41.81;100073.94;5050558;28;20944;-82
2022/06/17 07:55:42;;;;;;;10.33;9.23;;;;;;;26.02;40.86;100065.06;5040825;28;20428;-82
2022/06/17 07:58:11;;;;;;;3.00;2.17;;;;;;;26.27;39.51;100073.25;5052069;28;20526;-81
2022/06/17 08:00:41;;;;;;;5.40;2.57;;;;;;;27.16;36.86;100073.75;5054727;28;20516;-82
2022/06/17 08:03:08;;;;;;;6.67;4.17;;;;;;;27.57;36.56;100079.81;5060543;28;20444;-82
2022/06/17 08:05:37;;;;;;;3.33;2.17;;;;;;;27.98;35.57;100073.00;5050966;28;20567;-81
2022/06/17 08:08:04;;;;;;;5.07;2.43;;;;;;;28.05;35.49;100073.94;5051890;28;20538;-82
2022/06/17 08:10:35;;;;;;;2.97;2.50;;;;;;;27.63;35.92;100065.22;5051297;28;20500;-82
2022/06/17 08:13:02;;;;;;;3.37;2.47;;;;;;;27.44;36.18;100060.22;5051425;28;20443;-83
2022/06/17 08:15:28;;;;;;;4.80;2.90;;;;;;;27.35;36.55;100058.59;5051557;28;20439;-81
2022/06/17 08:17:55;;;;;;;4.53;2.23;;;;;;;27.29;36.81;100053.78;5051567;28;20424;-82
2022/06/17 08:20:25;;;;;;;5.70;2.73;;;;;;;27.31;36.92;100044.25;5044819;28;21841;-82
2022/06/17 08:22:52;;;;;;;4.43;3.13;;;;;;;27.47;36.46;100048.78;5039255;28;20610;-82
2022/06/17 08:25:19;;;;;;;12.13;3.80;;;;;;;27.60;35.77;100051.75;5032943;28;20525;-82
2022/06/17 08:27:51;;;;;;;633.40;593.40;;;;;;;27.10;36.50;100053.22;5038922;28;20507;-82
2022/06/17 08:30:21;;;;;;;5.17;3.13;;;;;;;26.96;37.14;100065.97;5036352;28;20434;-82
2022/06/17 08:32:51;;;;;;;3.13;2.20;;;;;;;26.78;37.60;100076.44;5050605;28;20527;-81
2022/06/17 08:35:21;;;;;;;2.20;1.70;;;;;;;26.88;36.47;100067.91;5050165;28;20439;-82
2022/06/17 08:37:51;;;;;;;2.43;2.10;;;;;;;26.88;37.16;100065.16;5039958;28;20428;-81
2022/06/17 08:40:35;;;;;;;2.80;2.30;;;;;;;27.06;36.84;100067.59;5040941;28;20978;-82
2022/06/17 08:43:15;;;;;;;2.90;2.00;;;;;;;27.12;36.60;100077.94;5040031;28;20454;-81
2022/06/17 08:45:49;;;;;;;3.30;2.10;;;;;;;27.13;36.58;100071.34;5031678;28;20440;-83
2022/06/17 08:48:33;;;;;;;5.80;3.60;;;;;;;27.17;37.40;100068.03;5032422;28;20965;-82
2022/06/17 08:51:18;;;;;;;2.80;2.03;;;;;;;26.79;37.38;100078.16;5039521;28;20431;-82
2022/06/17 08:54:08;;;;;;;2.90;2.23;;;;;;;27.07;35.80;100069.31;5043977;28;20437;-82
2022/06/17 08:56:42;;;;;;;5.47;3.20;;;;;;;27.34;36.31;100073.44;5046678;28;20511;-82
2022/06/17 08:59:23;;;;;;;2.30;1.67;;;;;;;27.63;35.81;100069.88;5048669;28;20440;-81
2022/06/17 09:01:59;;;;;;;2.80;2.60;;;;;;;27.61;35.30;100075.63;5040154;28;20440;-81
2022/06/17 09:04:42;;;;;;;3.13;1.77;;;;;;;27.54;34.53;100073.78;5031031;28;20496;-81
2022/06/17 09:07:19;;;;;;;1.93;1.73;;;;;;;27.71;34.15;100080.00;5035622;28;20491;-81
2022/06/17 09:10:02;;;;;;;5.40;3.20;;;;;;;27.61;34.83;100086.69;5049798;28;20435;-81
2022/06/17 09:12:38;;;;;;;4.37;2.07;;;;;;;27.77;33.83;100088.41;5039438;28;20516;-82
2022/06/17 09:15:17;;;;;;;2.40;1.70;;;;;;;28.09;33.27;100088.28;5031468;28;20519;-82
2022/06/17 09:17:54;;;;;;;3.77;1.40;;;;;;;27.96;33.27;100083.41;5039248;28;20475;-81
2022/06/17 09:20:31;;;;;;;8.50;2.23;;;;;;;27.80;32.76;100081.66;5039871;28;20526;-81
2022/06/17 09:23:02;;;;;;;2.33;1.80;;;;;;;28.09;33.30;100080.81;5035099;28;20443;-82
2022/06/17 09:25:37;;;;;;;3.10;2.80;;;;;;;28.55;33.27;100074.19;5045827;28;20550;-82
2022/06/17 09:28:10;;;;;;;3.80;2.20;;;;;;;29.06;32.97;100071.34;5045607;28;20521;-81
2022/06/17 09:30:43;;;;;;;2.30;2.10;;;;;;;28.95;33.14;100063.56;5050717;28;20560;-81
2022/06/17 09:33:15;;;;;;;17.00;12.67;;;;;;;28.57;33.31;100061.88;5037641;28;20519;-82
2022/06/17 09:35:48;;;;;;;5.83;5.13;;;;;;;27.95;34.56;100065.94;5030737;28;20423;-82
2022/06/17 09:38:21;;;;;;;8.33;6.57;;;;;;;27.45;34.71;100062.81;5031911;28;20551;-82
2022/06/17 09:40:54;;;;;;;2.80;1.60;;;;;;;28.16;33.72;100067.06;5032576;28;20433;-81
2022/06/17 09:43:27;;;;;;;2.57;1.80;;;;;;;28.57;33.73;100066.56;5041574;28;20436;-81
2022/06/17 09:46:04;;;;;;;6.10;4.20;;;;;;;29.08;32.77;100074.78;5040195;28;20763;-81
2022/06/17 09:48:40;;;;;;;6.23;4.17;;;;;;;29.19;32.71;100065.94;5049856;28;20467;-81
2022/06/17 09:51:11;;;;;;;4.13;3.50;;;;;;;28.87;33.03;100065.38;5050963;28;20428;-81
2022/06/17 09:53:46;;;;;;;2.57;1.70;;;;;;;28.40;33.65;100066.75;5044060;28;20436;-82
2022/06/17 09:56:18;;;;;;;2.60;1.97;;;;;;;28.61;33.06;100062.34;5037547;28;20944;-83
2022/06/17 09:58:47;;;;;;;2.70;1.90;;;;;;;28.62;33.23;100061.28;5048295;28;20436;-83
2022/06/17 10:01:17;;;;;;;3.60;2.57;;;;;;;27.92;34.17;100065.44;5035538;28;21180;-82
2022/06/17 10:03:43;;;;;;;4.30;2.43;;;;;;;27.60;34.72;100060.06;5053817;28;20430;-82
2022/06/17 10:06:24;;;;;;;2.43;2.00;;;;;;;27.77;34.21;100065.41;5054112;28;20559;-82
2022/06/17 10:09:02;;;;;;;3.70;2.40;;;;;;;27.62;33.94;100069.03;5044185;28;20440;-80
2022/06/17 10:11:37;;;;;;;3.20;2.73;;;;;;;27.94;33.93;100077.19;5033967;28;20464;-80
2022/06/17 10:14:14;;;;;;;3.80;2.60;;;;;;;28.38;32.62;100062.44;5034309;28;20412;-79
2022/06/17 10:19:45;;;;;;;3.20;1.77;;;;;;;28.43;32.56;100065.50;5034217;28;20421;-79
2022/06/17 10:22:27;;;;;;;3.70;3.23;;;;;;;28.35;32.40;100066.47;5053769;28;20445;-80
2022/06/17 10:25:04;;;;;;;2.40;1.70;;;;;;;28.59;32.32;100061.69;5053798;28;20523;-80
2022/06/17 10:27:43;;;;;;;1.83;1.60;;;;;;;28.96;31.76;100062.50;5053954;28;21033;-80
2022/06/17 10:30:13;;;;;;;2.40;1.80;;;;;;;28.97;31.73;100067.84;5053666;28;20505;-80
2022/06/17 10:32:43;;;;;;;3.93;2.50;;;;;;;28.88;32.30;100057.94;5053797;28;20906;-79
2022/06/17 10:35:16;;;;;;;2.97;2.33;;;;;;;29.03;32.07;100061.50;5053461;28;20438;-81
2022/06/17 10:37:43;;;;;;;5.23;1.93;;;;;;;28.99;31.94;100053.78;5053600;28;20436;-83
2022/06/17 10:40:15;;;;;;;3.73;2.73;;;;;;;28.92;31.94;100048.16;5053051;28;20430;-81
2022/06/17 10:42:46;;;;;;;1.93;1.60;;;;;;;28.87;30.32;100051.53;5053187;28;20567;-80
2022/06/17 10:45:18;;;;;;;3.10;1.73;;;;;;;29.10;29.09;100054.16;5053317;28;20443;-78
2022/06/17 10:47:53;;;;;;;2.57;1.90;;;;;;;29.33;28.39;100054.97;5038215;28;20507;-79
2022/06/17 10:50:22;;;;;;;1.67;1.03;;;;;;;29.42;27.99;100051.88;5036526;28;20821;-78
2022/06/17 10:52:55;;;;;;;1.47;1.30;;;;;;;29.51;28.12;100044.25;5051401;28;20451;-79
2022/06/17 10:55:31;;;;;;;1.37;1.27;;;;;;;29.32;28.49;100031.94;5053615;28;20439;-79
2022/06/17 10:58:20;;;;;;;1.80;1.23;;;;;;;29.61;28.71;100030.03;5052989;28;20463;-80
2022/06/17 11:00:58;;;;;;;3.80;2.03;;;;;;;29.72;28.51;100027.56;5044490;28;20483;-79
2022/06/17 11:03:30;;;;;;;4.90;3.83;;;;;;;29.84;28.59;100030.63;5032731;28;20425;-78
2022/06/17 11:06:13;;;;;;;5.00;3.90;;;;;;;29.89;28.70;100013.34;5032949;28;20476;-78
2022/06/17 11:08:43;;;;;;;1.40;1.23;;;;;;;29.80;28.68;100025.69;5033252;28;20468;-80
2022/06/17 11:13:58;;;;;;;1.90;1.27;;;;;;;29.55;28.30;100017.81;5052579;28;20461;-78
2022/06/17 11:16:26;;;;;;;3.23;1.27;;;;;;;29.25;28.06;100029.09;5033153;28;20504;-79
2022/06/17 11:19:04;;;;;;;1.97;1.33;;;;;;;28.76;29.04;100029.88;5034673;28;20437;-78
2022/06/17 11:21:35;;;;;;;3.83;1.97;;;;;;;29.30;28.83;100034.03;5052856;28;20450;-79
2022/06/17 11:24:04;;;;;;;2.90;1.83;;;;;;;29.77;28.82;100024.19;5051309;28;20511;-79
2022/06/17 11:26:33;;;;;;;3.00;2.13;;;;;;;29.82;28.67;100026.34;5032712;28;20994;-78
2022/06/17 11:29:03;;;;;;;1.90;1.80;;;;;;;29.76;28.23;100025.25;5051551;28;20574;-79
2022/06/17 11:31:41;;;;;;;5.13;4.00;;;;;;;29.67;28.36;100018.13;5040050;28;20520;-80
2022/06/17 11:34:17;;;;;;;1.60;1.40;;;;;;;29.29;28.05;100018.47;5050503;28;20467;-80
2022/06/17 11:36:59;;;;;;;2.40;2.20;;;;;;;29.15;28.49;100005.53;5049627;28;20435;-74
2022/06/17 11:39:32;;;;;;;1.70;1.30;;;;;;;29.07;29.02;100004.59;5036411;28;20821;-74
2022/06/17 11:42:01;;;;;;;7.93;3.20;;;;;;;29.41;29.06;100002.13;5046520;28;20466;-75
2022/06/17 11:44:28;;;;;;;2.33;1.57;;;;;;;29.89;27.95;100003.09;5049021;28;20530;-75
2022/06/17 11:46:58;;;;;;;1.70;1.60;;;;;;;29.79;28.26;99997.09;5052116;28;20946;-73
2022/06/17 11:49:27;;;;;;;2.50;1.40;;;;;;;30.00;27.62;99992.50;5044905;28;20931;-75
2022/06/17 11:52:00;;;;;;;2.17;1.10;;;;;;;29.82;27.66;99990.25;5045779;28;20519;-75